createdAt,value
2023-01-22T00:01:10.449Z,2.98
2023-01-22T00:03:39.691Z,2.93
2023-01-22T00:06:08.891Z,2.92
2023-01-22T00:08:37.158Z,2.98
2023-01-22T00:11:05.082Z,3.03
2023-01-22T00:13:32.905Z,3.08
2023-01-22T00:16:00.961Z,3.07
2023-01-22T00:18:28.836Z,3.03
2023-01-22T00:20:56.551Z,3.03
2023-01-22T00:23:25.093Z,3.05
2023-01-22T00:26:13.675Z,3.03
2023-01-22T00:28:45.271Z,2.97
2023-01-22T00:31:14.696Z,2.85
2023-01-22T00:33:43.068Z,2.80
2023-01-22T00:36:14.270Z,2.84
2023-01-22T00:38:42.972Z,2.92
2023-01-22T00:41:11.401Z,3.00
2023-01-22T00:43:40.597Z,3.06
2023-01-22T00:46:10.572Z,3.10
2023-01-22T00:48:38.960Z,3.14
2023-01-22T00:51:08.784Z,3.14
2023-01-22T00:53:37.711Z,3.13
2023-01-22T00:56:06.775Z,3.06
2023-01-22T00:58:34.724Z,2.99
2023-01-22T01:01:04.407Z,2.99
2023-01-22T01:03:34.126Z,2.95
2023-01-22T01:06:05.638Z,2.96
2023-01-22T01:08:39.921Z,2.89
2023-01-22T01:11:12.539Z,2.88
2023-01-22T01:13:43.263Z,2.89
2023-01-22T01:16:16.546Z,2.83
2023-01-22T01:18:46.976Z,2.77
2023-01-22T01:21:17.011Z,2.69
2023-01-22T01:23:45.462Z,2.63
2023-01-22T01:26:15.205Z,2.60
2023-01-22T01:28:44.125Z,2.53
2023-01-22T01:31:15.015Z,2.50
2023-01-22T01:33:43.234Z,2.54
2023-01-22T01:36:18.263Z,2.59
2023-01-22T01:38:48.195Z,2.60
2023-01-22T01:41:21.333Z,2.55
2023-01-22T01:44:24.837Z,2.57
2023-01-22T01:47:00.706Z,2.53
2023-01-22T01:49:32.777Z,2.44
2023-01-22T01:52:06.888Z,2.37
2023-01-22T01:54:34.678Z,2.32
2023-01-22T01:57:06.609Z,2.36
2023-01-22T01:59:35.193Z,2.44
2023-01-22T02:02:03.953Z,2.54
2023-01-22T02:04:31.792Z,2.57
2023-01-22T02:06:59.718Z,2.62
2023-01-22T02:09:27.616Z,2.64
2023-01-22T02:11:55.602Z,2.65
2023-01-22T02:14:28.364Z,2.68
2023-01-22T02:17:11.593Z,2.68
2023-01-22T02:19:40.082Z,2.68
2023-01-22T02:22:22.274Z,2.75
2023-01-22T02:24:50.339Z,2.74
2023-01-22T02:27:19.096Z,2.71
2023-01-22T02:29:47.684Z,2.70
2023-01-22T02:32:15.816Z,2.75
2023-01-22T02:34:43.751Z,2.77
2023-01-22T02:37:12.324Z,2.77
2023-01-22T02:39:40.205Z,2.78
2023-01-22T02:42:08.916Z,2.84
2023-01-22T02:44:37.060Z,2.85
2023-01-22T02:47:05.231Z,2.84
2023-01-22T02:49:33.345Z,2.85
2023-01-22T02:52:02.121Z,2.83
2023-01-22T02:54:30.972Z,2.81
2023-01-22T02:56:58.700Z,2.79
2023-01-22T02:59:26.631Z,2.77
2023-01-22T03:01:56.425Z,2.76
2023-01-22T03:04:24.655Z,2.82
2023-01-22T03:06:52.464Z,2.91
2023-01-22T03:09:20.408Z,2.94
2023-01-22T03:11:48.200Z,2.96
2023-01-22T03:14:41.207Z,3.05
2023-01-22T03:17:27.991Z,3.12
2023-01-22T03:20:15.030Z,3.17
2023-01-22T03:22:42.921Z,3.20
2023-01-22T03:25:10.932Z,3.20
2023-01-22T03:27:58.981Z,3.17
2023-01-22T03:30:27.501Z,3.20
2023-01-22T03:37:15.611Z,3.18
2023-01-22T03:39:45.687Z,3.24
2023-01-22T03:42:20.057Z,3.23
2023-01-22T03:44:48.119Z,3.20
2023-01-22T03:47:17.668Z,3.22
2023-01-22T03:49:45.428Z,3.20
2023-01-22T03:52:13.467Z,3.18
2023-01-22T03:54:41.583Z,3.16
2023-01-22T03:57:10.046Z,3.11
2023-01-22T03:59:39.630Z,3.12
2023-01-22T04:02:08.113Z,3.15
2023-01-22T04:04:39.435Z,3.18
2023-01-22T04:07:07.235Z,3.19
2023-01-22T04:09:34.934Z,3.19
2023-01-22T04:12:03.763Z,3.20
2023-01-22T04:14:32.306Z,3.14
2023-01-22T04:17:02.637Z,3.08
2023-01-22T04:19:52.527Z,3.05
2023-01-22T04:22:42.797Z,3.09
2023-01-22T04:25:12.698Z,3.14
2023-01-22T04:27:40.481Z,3.17
2023-01-22T04:30:08.939Z,3.17
2023-01-22T04:32:37.668Z,3.21
2023-01-22T04:35:16.921Z,3.22
2023-01-22T04:37:50.474Z,3.24
2023-01-22T04:40:18.757Z,3.28
2023-01-22T04:42:47.594Z,3.34
2023-01-22T04:45:15.981Z,3.33
2023-01-22T04:47:45.335Z,3.33
2023-01-22T04:50:19.083Z,3.33
2023-01-22T04:52:47.623Z,3.39
2023-01-22T04:55:16.923Z,3.42
2023-01-22T04:57:56.642Z,3.44
2023-01-22T05:00:25.202Z,3.39
2023-01-22T05:02:57.868Z,3.33
2023-01-22T05:05:26.482Z,3.26
2023-01-22T05:07:54.664Z,3.24
2023-01-22T05:10:23.177Z,3.19
2023-01-22T05:12:51.260Z,3.20
2023-01-22T05:15:24.531Z,3.22
2023-01-22T05:17:55.424Z,3.26
2023-01-22T05:20:23.254Z,3.30
2023-01-22T05:22:51.445Z,3.28
2023-01-22T05:25:23.500Z,3.27
2023-01-22T05:27:51.431Z,3.26
2023-01-22T05:30:49.979Z,3.24
2023-01-22T05:33:34.578Z,3.17
2023-01-22T05:36:04.113Z,3.14
2023-01-22T05:38:32.496Z,3.14
2023-01-22T05:41:00.512Z,3.13
2023-01-22T05:43:32.113Z,3.08
2023-01-22T05:46:04.316Z,2.99
2023-01-22T05:48:50.905Z,2.91
2023-01-22T05:51:23.144Z,2.82
2023-01-22T05:53:51.913Z,2.75
2023-01-22T05:56:19.780Z,2.68
2023-01-22T05:58:47.578Z,2.62
2023-01-22T06:01:15.610Z,2.58
2023-01-22T06:03:46.666Z,2.60
2023-01-22T06:06:16.542Z,2.62
2023-01-22T06:08:46.720Z,2.62
2023-01-22T06:11:16.793Z,2.64
2023-01-22T06:13:47.762Z,2.69
2023-01-22T06:16:17.971Z,2.76
2023-01-22T06:19:09.542Z,2.79
2023-01-22T06:21:46.562Z,2.80
2023-01-22T06:24:14.431Z,2.83
2023-01-22T06:26:43.315Z,2.87
2023-01-22T06:29:13.084Z,2.87
2023-01-22T06:31:41.319Z,2.95
2023-01-22T06:34:09.638Z,2.93
2023-01-22T06:36:37.492Z,2.91
2023-01-22T06:39:05.477Z,2.94
2023-01-22T06:41:38.684Z,2.95
2023-01-22T06:44:08.257Z,2.95
2023-01-22T06:46:36.044Z,2.93
2023-01-22T06:49:08.350Z,2.86
2023-01-22T06:51:36.531Z,2.82
2023-01-22T06:54:04.472Z,2.82
2023-01-22T06:56:32.922Z,2.85
2023-01-22T06:59:01.610Z,2.84
2023-01-22T07:01:30.150Z,2.83
2023-01-22T07:03:58.204Z,2.82
2023-01-22T07:06:25.953Z,2.85
2023-01-22T07:08:54.040Z,2.86
2023-01-22T07:11:21.866Z,2.91
2023-01-22T07:13:49.976Z,2.90
2023-01-22T07:16:17.844Z,2.89
2023-01-22T07:18:45.804Z,2.93
2023-01-22T07:21:13.699Z,2.97
2023-01-22T07:23:42.289Z,2.96
2023-01-22T07:26:10.444Z,2.96
2023-01-22T07:28:39.378Z,3.01
2023-01-22T07:31:11.476Z,3.06
2023-01-22T07:33:39.504Z,3.08
2023-01-22T07:36:09.919Z,3.11
2023-01-22T07:38:37.823Z,3.09
2023-01-22T07:41:16.923Z,3.06
2023-01-22T07:44:01.296Z,3.00
2023-01-22T07:46:29.531Z,3.02
2023-01-22T07:48:57.309Z,3.14
2023-01-22T07:51:25.102Z,3.23
2023-01-22T07:53:53.164Z,3.23
2023-01-22T07:56:21.046Z,3.29
2023-01-22T07:58:48.906Z,3.34
2023-01-22T08:01:17.657Z,3.31
2023-01-22T08:03:45.416Z,3.27
2023-01-22T08:06:17.423Z,3.32
2023-01-22T08:08:45.207Z,3.43
2023-01-22T08:11:13.657Z,3.47
2023-01-22T08:13:41.639Z,3.44
2023-01-22T08:16:09.743Z,3.37
2023-01-22T08:18:38.319Z,3.39
2023-01-22T08:21:06.351Z,3.36
2023-01-22T08:23:34.585Z,3.32
2023-01-22T08:26:06.535Z,3.37
2023-01-22T08:28:34.536Z,3.35
2023-01-22T08:31:03.418Z,3.32
2023-01-22T08:33:33.591Z,3.28
2023-01-22T08:36:01.647Z,3.31
2023-01-22T08:38:29.813Z,3.32
2023-01-22T08:40:57.796Z,3.32
2023-01-22T08:43:25.855Z,3.31
2023-01-22T08:45:53.798Z,3.32
2023-01-22T08:48:21.797Z,3.36
2023-01-22T08:50:49.635Z,3.42
2023-01-22T08:53:17.535Z,3.45
2023-01-22T08:55:51.684Z,3.44
2023-01-22T08:58:22.358Z,3.41
2023-01-22T14:02:36.280Z,2.98
2023-01-22T14:05:05.214Z,2.91
2023-01-22T14:07:36.524Z,2.86
2023-01-22T14:10:33.755Z,2.84
2023-01-22T14:13:05.005Z,2.90
2023-01-22T14:15:33.757Z,2.95
2023-01-22T14:18:10.178Z,2.97
2023-01-22T14:20:40.111Z,2.97
2023-01-22T14:23:08.081Z,2.98
2023-01-22T14:25:40.818Z,3.00
2023-01-22T14:28:09.188Z,3.02
2023-01-22T14:30:37.260Z,3.02
2023-01-22T14:33:05.886Z,3.08
2023-01-22T14:35:33.895Z,3.08
2023-01-22T14:38:01.782Z,3.07
2023-01-22T14:40:30.591Z,3.02
2023-01-22T14:43:02.195Z,3.00
2023-01-22T14:45:30.382Z,3.01
2023-01-22T14:47:58.294Z,3.04
2023-01-22T14:50:26.390Z,3.01
2023-01-22T14:52:54.449Z,2.93
2023-01-22T14:55:22.615Z,2.89
2023-01-22T14:57:50.640Z,2.89
2023-01-22T15:00:19.597Z,2.84
2023-01-22T15:02:47.969Z,2.86
2023-01-22T15:05:16.370Z,2.94
2023-01-22T15:07:44.256Z,2.96
2023-01-22T15:10:12.400Z,3.00
2023-01-22T15:12:40.249Z,2.98
2023-01-22T15:15:09.113Z,2.95
2023-01-22T15:17:37.338Z,2.91
2023-01-22T15:20:05.892Z,2.93
2023-01-22T15:22:34.388Z,2.95
2023-01-22T15:25:02.480Z,2.89
2023-01-22T15:27:30.273Z,2.93
2023-01-22T15:29:58.173Z,2.93
2023-01-22T15:32:26.090Z,2.86
2023-01-22T15:34:54.081Z,2.85
2023-01-22T15:37:23.803Z,2.80
2023-01-22T15:39:51.945Z,2.77
2023-01-22T15:42:19.787Z,2.74
2023-01-22T15:44:47.684Z,2.71
2023-01-22T15:47:15.677Z,2.65
2023-01-22T15:49:43.500Z,2.61
2023-01-22T15:52:11.489Z,2.58
2023-01-22T15:54:42.026Z,2.56
2023-01-22T15:57:09.850Z,2.58
2023-01-22T15:59:38.872Z,2.57
2023-01-22T16:02:09.514Z,2.51
2023-01-22T16:04:37.461Z,2.47
2023-01-22T16:07:05.251Z,2.45
2023-01-22T16:09:33.858Z,2.45
2023-01-22T16:12:01.762Z,2.44
2023-01-22T16:14:29.618Z,2.49
2023-01-22T16:16:57.503Z,2.52
2023-01-22T16:19:25.566Z,2.56
2023-01-22T16:21:53.592Z,2.58
2023-01-22T16:24:21.374Z,2.59
2023-01-22T16:26:49.226Z,2.56
2023-01-22T16:29:17.181Z,2.51
2023-01-22T16:31:45.544Z,2.44
2023-01-22T16:34:15.539Z,2.41
2023-01-22T16:36:44.122Z,2.37
2023-01-22T16:39:23.893Z,2.36
2023-01-22T16:41:52.051Z,2.39
2023-01-22T16:44:26.319Z,2.42
2023-01-22T16:46:59.898Z,2.38
2023-01-22T16:49:33.278Z,2.39
2023-01-22T16:52:16.752Z,2.45
2023-01-22T16:54:50.241Z,2.46
2023-01-22T16:57:19.431Z,2.47
2023-01-22T16:59:47.368Z,2.53
2023-01-22T17:02:16.158Z,2.60
2023-01-22T17:04:44.903Z,2.66
2023-01-22T17:07:23.945Z,2.64
2023-01-22T17:10:00.859Z,2.65
2023-01-22T17:12:29.261Z,2.61
2023-01-22T17:14:57.805Z,2.61
2023-01-22T17:17:25.870Z,2.65
2023-01-22T17:19:53.762Z,2.65
2023-01-22T17:22:22.395Z,2.64
2023-01-22T17:24:50.285Z,2.59
2023-01-22T17:27:19.172Z,2.56
2023-01-22T17:29:47.183Z,2.56
2023-01-22T17:32:15.188Z,2.59
2023-01-22T17:34:42.990Z,2.57
2023-01-22T17:37:11.275Z,2.59
2023-01-22T17:39:39.630Z,2.64
2023-01-22T17:42:07.520Z,2.66
2023-01-22T17:44:35.403Z,2.69
2023-01-22T17:47:03.656Z,2.69
2023-01-22T17:49:33.207Z,2.74
2023-01-22T17:52:01.136Z,2.86
2023-01-22T17:54:28.972Z,2.92
2023-01-22T17:56:57.331Z,2.95
2023-01-22T17:59:25.161Z,2.93
2023-01-22T18:01:52.939Z,2.93
2023-01-22T18:04:20.963Z,2.94
2023-01-22T18:06:49.959Z,2.94
2023-01-22T18:09:18.410Z,2.91
2023-01-22T18:11:46.680Z,2.90
2023-01-22T18:14:21.813Z,2.89
2023-01-22T18:16:50.591Z,2.87
2023-01-22T18:19:18.956Z,2.91
2023-01-22T18:21:46.989Z,2.97
2023-01-22T18:24:14.903Z,2.98
2023-01-22T18:26:42.853Z,2.98
2023-01-22T18:29:12.156Z,2.98
2023-01-22T18:31:40.205Z,3.00
2023-01-22T18:34:08.848Z,3.04
2023-01-22T18:36:38.761Z,3.06
2023-01-22T18:39:26.004Z,3.07
2023-01-22T18:41:54.355Z,3.13
2023-01-22T18:44:27.628Z,3.14
2023-01-22T18:46:58.778Z,3.18
2023-01-22T18:49:28.147Z,3.24
2023-01-22T18:52:00.830Z,3.24
2023-01-22T18:54:29.217Z,3.17
2023-01-22T18:56:57.297Z,3.11
2023-01-22T18:59:25.393Z,3.04
2023-01-22T19:01:53.236Z,2.99
2023-01-22T19:04:22.088Z,2.97
2023-01-22T19:06:53.006Z,2.96
2023-01-22T19:09:21.655Z,2.97
2023-01-22T19:11:52.414Z,2.94
2023-01-22T19:14:21.187Z,2.95
2023-01-22T19:16:51.310Z,2.93
2023-01-22T19:19:20.634Z,2.88
2023-01-22T19:21:52.670Z,2.88
2023-01-22T19:24:25.018Z,2.87
2023-01-22T19:26:54.811Z,2.72
2023-01-22T19:29:24.117Z,2.64
2023-01-22T19:31:53.904Z,2.65
2023-01-22T19:34:23.993Z,2.71
2023-01-22T19:36:54.659Z,2.73
2023-01-22T19:39:25.542Z,2.73
2023-01-22T19:41:54.419Z,2.77
2023-01-22T19:44:25.511Z,2.80
2023-01-22T19:46:55.888Z,2.78
2023-01-22T19:49:25.311Z,2.77
2023-01-22T19:51:54.188Z,2.79
2023-01-22T19:54:22.557Z,2.83
2023-01-22T19:56:50.692Z,2.90
2023-01-22T19:59:20.542Z,2.95
2023-01-22T20:01:50.051Z,3.02
2023-01-22T20:04:25.412Z,3.03
2023-01-22T20:07:04.424Z,3.02
2023-01-22T20:09:34.031Z,2.98
2023-01-22T20:12:02.720Z,2.93
2023-01-22T20:14:33.075Z,2.87
2023-01-22T20:17:02.389Z,2.83
2023-01-22T20:19:30.951Z,2.87
2023-01-22T20:22:00.475Z,2.87
2023-01-22T20:24:28.376Z,2.88
2023-01-22T20:26:58.048Z,2.88
2023-01-22T20:29:26.353Z,2.88
2023-01-22T20:31:54.566Z,2.84
2023-01-22T20:34:22.675Z,2.83
2023-01-22T20:36:50.799Z,2.87
2023-01-22T20:39:19.847Z,2.85
2023-01-22T20:41:48.396Z,2.83
2023-01-22T20:44:16.954Z,2.84
2023-01-22T20:46:44.863Z,2.88
2023-01-22T20:49:13.497Z,2.94
2023-01-22T20:51:42.721Z,2.93
2023-01-22T20:54:10.952Z,2.93
2023-01-22T20:56:38.891Z,2.93
2023-01-22T20:59:11.030Z,2.91
2023-01-22T21:01:39.785Z,2.91
2023-01-22T21:04:08.135Z,2.91
2023-01-22T21:06:39.487Z,2.94
2023-01-22T21:09:08.819Z,2.94
2023-01-22T21:11:38.785Z,3.02
2023-01-22T21:14:07.689Z,3.12
2023-01-22T21:16:38.460Z,3.16
2023-01-22T21:19:15.823Z,3.21
2023-01-22T21:21:44.270Z,3.20
2023-01-22T21:24:12.928Z,3.25
2023-01-22T21:26:41.418Z,3.35
2023-01-22T21:29:14.272Z,3.40
2023-01-22T21:31:42.962Z,3.35
2023-01-22T21:34:11.785Z,3.37
2023-01-22T21:36:42.658Z,3.39
2023-01-22T21:39:15.612Z,3.37
2023-01-22T21:41:43.996Z,3.38
2023-01-22T21:44:32.466Z,3.39
2023-01-22T21:47:01.084Z,3.44
2023-01-22T21:49:29.216Z,3.48
2023-01-22T21:52:05.948Z,3.49
2023-01-22T21:54:36.761Z,3.49
2023-01-22T21:57:05.421Z,3.45
2023-01-22T21:59:33.225Z,3.37
2023-01-22T22:02:01.027Z,3.28
2023-01-22T22:04:28.969Z,3.22
2023-01-22T22:06:57.132Z,3.18
2023-01-22T22:09:27.061Z,3.15
2023-01-22T22:11:59.661Z,3.15
2023-01-22T22:14:27.909Z,3.14
2023-01-22T22:16:56.180Z,3.13
2023-01-22T22:19:24.546Z,3.17
2023-01-22T22:21:54.556Z,3.24
2023-01-22T22:24:22.387Z,3.27
2023-01-22T22:26:50.455Z,3.29
2023-01-22T22:29:18.511Z,3.37
2023-01-22T22:31:46.520Z,3.40
2023-01-22T22:34:14.348Z,3.45
2023-01-22T22:36:42.129Z,3.56
2023-01-22T22:39:10.026Z,3.63
2023-01-22T22:41:39.268Z,3.67
2023-01-22T22:44:07.769Z,3.75
2023-01-22T22:46:38.676Z,3.77
2023-01-22T22:49:06.960Z,3.70
2023-01-22T22:51:37.635Z,3.62
2023-01-22T22:54:10.076Z,3.51
2023-01-22T22:56:37.895Z,3.48
2023-01-22T22:59:05.779Z,3.49
2023-01-22T23:01:35.542Z,3.51
2023-01-22T23:04:07.622Z,3.52
2023-01-22T23:06:36.517Z,3.52
2023-01-22T23:09:19.742Z,3.57
2023-01-22T23:11:51.736Z,3.59
2023-01-22T23:14:19.698Z,3.59
2023-01-22T23:16:48.376Z,3.58
2023-01-22T23:19:25.720Z,3.55
2023-01-22T23:21:55.679Z,3.54
2023-01-22T23:24:23.984Z,3.53
2023-01-22T23:26:52.534Z,3.48
2023-01-22T23:29:24.073Z,3.39
2023-01-22T23:31:51.993Z,3.29
2023-01-22T23:34:21.715Z,3.25
2023-01-22T23:36:50.372Z,3.23
2023-01-22T23:39:20.209Z,3.21
2023-01-22T23:41:48.258Z,3.26
2023-01-22T23:44:16.327Z,3.33
2023-01-22T23:46:44.860Z,3.37
2023-01-22T23:49:12.743Z,3.45
2023-01-22T23:51:42.264Z,3.48
2023-01-22T23:54:10.194Z,3.48
2023-01-22T23:56:37.912Z,3.49
2023-01-22T23:59:05.683Z,3.50
